sensor_id;sensor_type;location;lat;lon;timestamp;pressure;altitude;pressure_sealevel;temperature;humidity
77366;BME280;66430;50.182;11.704;2023-04-27T00:01:30;94779.70;;;7.03;32.44
77366;BME280;66430;50.182;11.704;2023-04-27T00:03:56;94775.66;;;7.32;32.31
77366;BME280;66430;50.182;11.704;2023-04-27T00:06:21;94774.56;;;7.30;32.40
77366;BME280;66430;50.182;11.704;2023-04-27T00:08:47;94773.31;;;7.05;32.38
77366;BME280;66430;50.182;11.704;2023-04-27T00:11:12;94773.96;;;7.29;32.29
77366;BME280;66430;50.182;11.704;2023-04-27T00:13:38;94773.20;;;7.34;32.18
77366;BME280;66430;50.182;11.704;2023-04-27T00:16:04;94771.26;;;7.27;32.35
77366;BME280;66430;50.182;11.704;2023-04-27T00:18:29;94768.11;;;7.02;32.44
77366;BME280;66430;50.182;11.704;2023-04-27T00:20:55;94767.13;;;7.30;32.37
77366;BME280;66430;50.182;11.704;2023-04-27T00:23:20;94769.37;;;7.28;32.36
77366;BME280;66430;50.182;11.704;2023-04-27T00:25:46;94764.60;;;7.28;32.20
77366;BME280;66430;50.182;11.704;2023-04-27T00:28:11;94763.34;;;7.29;32.23
77366;BME280;66430;50.182;11.704;2023-04-27T00:30:37;94762.44;;;7.35;32.20
77366;BME280;66430;50.182;11.704;2023-04-27T00:33:02;94764.39;;;7.31;32.27
77366;BME280;66430;50.182;11.704;2023-04-27T00:35:27;94760.88;;;7.26;32.35
77366;BME280;66430;50.182;11.704;2023-04-27T00:37:53;94761.96;;;7.23;32.52
77366;BME280;66430;50.182;11.704;2023-04-27T00:40:20;94763.17;;;7.22;32.67
77366;BME280;66430;50.182;11.704;2023-04-27T00:42:44;94765.27;;;7.20;32.75
77366;BME280;66430;50.182;11.704;2023-04-27T00:45:10;94762.86;;;6.99;32.47
77366;BME280;66430;50.182;11.704;2023-04-27T00:47:35;94765.50;;;7.27;32.37
77366;BME280;66430;50.182;11.704;2023-04-27T00:50:00;94765.50;;;7.26;32.46
77366;BME280;66430;50.182;11.704;2023-04-27T00:52:25;94759.80;;;7.29;32.38
77366;BME280;66430;50.182;11.704;2023-04-27T00:54:51;94760.93;;;7.27;32.48
77366;BME280;66430;50.182;11.704;2023-04-27T00:57:16;94759.60;;;7.24;32.66
77366;BME280;66430;50.182;11.704;2023-04-27T00:59:42;94760.18;;;7.24;32.73
77366;BME280;66430;50.182;11.704;2023-04-27T01:02:08;94757.25;;;7.25;32.57
77366;BME280;66430;50.182;11.704;2023-04-27T01:04:33;94758.25;;;7.24;32.70
77366;BME280;66430;50.182;11.704;2023-04-27T01:06:58;94761.00;;;7.23;32.78
77366;BME280;66430;50.182;11.704;2023-04-27T01:09:24;94756.17;;;7.28;32.60
77366;BME280;66430;50.182;11.704;2023-04-27T01:11:49;94756.11;;;7.29;32.47
77366;BME280;66430;50.182;11.704;2023-04-27T01:14:15;94755.48;;;7.30;32.48
77366;BME280;66430;50.182;11.704;2023-04-27T01:16:40;94754.12;;;7.27;32.59
77366;BME280;66430;50.182;11.704;2023-04-27T01:19:07;94754.98;;;7.28;32.61
77366;BME280;66430;50.182;11.704;2023-04-27T01:21:31;94756.01;;;7.31;32.61
77366;BME280;66430;50.182;11.704;2023-04-27T01:23:57;94753.68;;;7.34;32.62
77366;BME280;66430;50.182;11.704;2023-04-27T01:26:23;94754.63;;;7.35;32.63
77366;BME280;66430;50.182;11.704;2023-04-27T01:28:48;94753.28;;;7.10;32.46
77366;BME280;66430;50.182;11.704;2023-04-27T01:31:13;94750.76;;;7.13;32.35
77366;BME280;66430;50.182;11.704;2023-04-27T01:33:39;94752.45;;;7.39;32.38
77366;BME280;66430;50.182;11.704;2023-04-27T01:36:04;94751.53;;;7.12;32.44
77366;BME280;66430;50.182;11.704;2023-04-27T01:38:31;94751.27;;;7.40;32.19
77366;BME280;66430;50.182;11.704;2023-04-27T01:40:55;94748.46;;;7.14;32.38
77366;BME280;66430;50.182;11.704;2023-04-27T01:43:21;94746.93;;;7.39;32.32
77366;BME280;66430;50.182;11.704;2023-04-27T01:45:46;94748.27;;;7.36;32.39
77366;BME280;66430;50.182;11.704;2023-04-27T01:48:12;94750.79;;;7.35;32.54
77366;BME280;66430;50.182;11.704;2023-04-27T01:50:37;94751.04;;;7.35;32.46
77366;BME280;66430;50.182;11.704;2023-04-27T01:53:02;94751.06;;;7.40;32.32
77366;BME280;66430;50.182;11.704;2023-04-27T01:55:28;94752.29;;;7.15;32.43
77366;BME280;66430;50.182;11.704;2023-04-27T01:57:53;94754.55;;;7.38;32.53
77366;BME280;66430;50.182;11.704;2023-04-27T02:00:19;94756.13;;;7.43;32.18
77366;BME280;66430;50.182;11.704;2023-04-27T02:02:44;94755.41;;;7.41;32.27
77366;BME280;66430;50.182;11.704;2023-04-27T02:05:10;94758.56;;;7.18;32.33
77366;BME280;66430;50.182;11.704;2023-04-27T02:07:35;94761.20;;;7.42;32.34
77366;BME280;66430;50.182;11.704;2023-04-27T02:10:01;94759.49;;;7.23;32.22
77366;BME280;66430;50.182;11.704;2023-04-27T02:12:26;94759.36;;;7.44;32.30
77366;BME280;66430;50.182;11.704;2023-04-27T02:14:57;94756.79;;;7.21;32.35
77366;BME280;66430;50.182;11.704;2023-04-27T02:17:17;94756.88;;;7.47;32.22
77366;BME280;66430;50.182;11.704;2023-04-27T02:19:43;94757.29;;;7.44;32.30
77366;BME280;66430;50.182;11.704;2023-04-27T02:22:09;94758.71;;;7.44;32.44
77366;BME280;66430;50.182;11.704;2023-04-27T02:24:35;94760.20;;;7.45;32.21
77366;BME280;66430;50.182;11.704;2023-04-27T02:26:59;94761.78;;;7.44;32.10
77366;BME280;66430;50.182;11.704;2023-04-27T02:29:29;94763.04;;;6.98;32.24
77366;BME280;66430;50.182;11.704;2023-04-27T02:31:50;94767.87;;;7.24;32.10
77366;BME280;66430;50.182;11.704;2023-04-27T02:34:16;94768.81;;;7.26;32.12
77366;BME280;66430;50.182;11.704;2023-04-27T02:36:41;94768.66;;;7.51;32.42
77366;BME280;66430;50.182;11.704;2023-04-27T02:39:07;94767.78;;;7.25;32.38
77366;BME280;66430;50.182;11.704;2023-04-27T02:41:33;94768.45;;;7.20;32.42
77366;BME280;66430;50.182;11.704;2023-04-27T02:43:58;94769.82;;;7.18;32.59
77366;BME280;66430;50.182;11.704;2023-04-27T02:46:24;94772.22;;;7.39;32.58
77366;BME280;66430;50.182;11.704;2023-04-27T02:48:49;94770.26;;;7.39;32.75
77366;BME280;66430;50.182;11.704;2023-04-27T02:51:15;94773.11;;;7.40;32.66
77366;BME280;66430;50.182;11.704;2023-04-27T02:53:40;94770.11;;;7.41;32.72
77366;BME280;66430;50.182;11.704;2023-04-27T02:56:06;94770.44;;;7.41;32.82
77366;BME280;66430;50.182;11.704;2023-04-27T02:58:31;94767.53;;;7.16;32.81
77366;BME280;66430;50.182;11.704;2023-04-27T03:00:57;94766.94;;;7.44;32.68
77366;BME280;66430;50.182;11.704;2023-04-27T03:03:23;94770.05;;;7.46;32.64
77366;BME280;66430;50.182;11.704;2023-04-27T03:05:49;94771.54;;;7.23;32.69
77366;BME280;66430;50.182;11.704;2023-04-27T03:08:14;94770.44;;;7.47;32.53
77366;BME280;66430;50.182;11.704;2023-04-27T03:10:39;94772.24;;;7.42;32.13
77366;BME280;66430;50.182;11.704;2023-04-27T03:13:05;94774.68;;;7.44;32.44
77366;BME280;66430;50.182;11.704;2023-04-27T03:15:30;94774.12;;;7.43;32.57
77366;BME280;66430;50.182;11.704;2023-04-27T03:17:55;94777.95;;;7.44;32.43
77366;BME280;66430;50.182;11.704;2023-04-27T03:20:21;94784.70;;;7.44;32.40
77366;BME280;66430;50.182;11.704;2023-04-27T03:22:46;94783.07;;;7.42;32.40
77366;BME280;66430;50.182;11.704;2023-04-27T03:25:12;94784.85;;;7.18;32.52
77366;BME280;66430;50.182;11.704;2023-04-27T03:27:37;94782.45;;;7.41;32.48
77366;BME280;66430;50.182;11.704;2023-04-27T03:30:03;94784.02;;;7.42;32.56
77366;BME280;66430;50.182;11.704;2023-04-27T03:32:28;94781.82;;;7.21;32.59
77366;BME280;66430;50.182;11.704;2023-04-27T03:34:54;94781.34;;;7.24;32.51
77366;BME280;66430;50.182;11.704;2023-04-27T03:37:19;94784.29;;;7.47;32.41
77366;BME280;66430;50.182;11.704;2023-04-27T03:39:44;94781.22;;;7.49;32.48
77366;BME280;66430;50.182;11.704;2023-04-27T03:42:10;94783.69;;;7.47;32.69
77366;BME280;66430;50.182;11.704;2023-04-27T03:44:36;94780.86;;;7.48;32.48
77366;BME280;66430;50.182;11.704;2023-04-27T03:47:01;94782.49;;;7.47;32.34
77366;BME280;66430;50.182;11.704;2023-04-27T03:49:26;94784.53;;;7.47;32.47
77366;BME280;66430;50.182;11.704;2023-04-27T03:51:52;94785.37;;;7.48;32.48
77366;BME280;66430;50.182;11.704;2023-04-27T03:54:18;94789.06;;;7.26;32.68
77366;BME280;66430;50.182;11.704;2023-04-27T03:56:43;94794.37;;;7.43;32.88
77366;BME280;66430;50.182;11.704;2023-04-27T03:59:08;94798.60;;;7.18;33.04
77366;BME280;66430;50.182;11.704;2023-04-27T04:01:34;94798.45;;;7.21;32.91
77366;BME280;66430;50.182;11.704;2023-04-27T04:03:59;94797.70;;;7.45;32.69
77366;BME280;66430;50.182;11.704;2023-04-27T04:06:25;94801.67;;;7.22;33.00
77366;BME280;66430;50.182;11.704;2023-04-27T04:08:51;94805.49;;;7.44;32.86
77366;BME280;66430;50.182;11.704;2023-04-27T04:11:16;94802.81;;;7.42;32.94
77366;BME280;66430;50.182;11.704;2023-04-27T04:13:41;94802.92;;;7.47;32.93
77366;BME280;66430;50.182;11.704;2023-04-27T04:16:08;94806.02;;;7.48;32.99
77366;BME280;66430;50.182;11.704;2023-04-27T04:18:32;94808.97;;;7.50;33.02
77366;BME280;66430;50.182;11.704;2023-04-27T04:20:57;94804.97;;;7.52;33.17
77366;BME280;66430;50.182;11.704;2023-04-27T04:23:23;94805.14;;;7.30;32.83
77366;BME280;66430;50.182;11.704;2023-04-27T04:25:49;94801.50;;;7.54;32.46
77366;BME280;66430;50.182;11.704;2023-04-27T04:28:14;94806.90;;;7.05;32.64
77366;BME280;66430;50.182;11.704;2023-04-27T04:30:39;94805.06;;;7.31;32.85
77366;BME280;66430;50.182;11.704;2023-04-27T04:33:05;94805.38;;;7.13;32.25
77366;BME280;66430;50.182;11.704;2023-04-27T04:35:30;94810.17;;;7.70;32.22
77366;BME280;66430;50.182;11.704;2023-04-27T04:37:55;94813.48;;;7.65;32.86
77366;BME280;66430;50.182;11.704;2023-04-27T04:40:21;94815.14;;;7.41;32.83
77366;BME280;66430;50.182;11.704;2023-04-27T04:42:47;94814.46;;;7.43;33.32
77366;BME280;66430;50.182;11.704;2023-04-27T04:45:13;94813.68;;;7.45;32.97
77366;BME280;66430;50.182;11.704;2023-04-27T04:47:38;94813.53;;;7.31;33.02
77366;BME280;66430;50.182;11.704;2023-04-27T04:50:05;94813.29;;;7.64;33.11
77366;BME280;66430;50.182;11.704;2023-04-27T04:52:29;94815.18;;;7.65;33.25
77366;BME280;66430;50.182;11.704;2023-04-27T04:54:55;94815.73;;;7.71;33.23
77366;BME280;66430;50.182;11.704;2023-04-27T04:57:20;94814.39;;;7.76;32.95
77366;BME280;66430;50.182;11.704;2023-04-27T04:59:45;94811.12;;;7.84;33.14
77366;BME280;66430;50.182;11.704;2023-04-27T05:02:11;94807.45;;;7.74;32.58
77366;BME280;66430;50.182;11.704;2023-04-27T05:04:36;94808.34;;;7.60;32.50
77366;BME280;66430;50.182;11.704;2023-04-27T05:07:04;94809.11;;;7.87;32.76
77366;BME280;66430;50.182;11.704;2023-04-27T05:09:28;94810.82;;;7.57;32.90
77366;BME280;66430;50.182;11.704;2023-04-27T05:11:53;94813.10;;;7.74;33.02
77366;BME280;66430;50.182;11.704;2023-04-27T05:14:19;94815.45;;;7.68;32.82
77366;BME280;66430;50.182;11.704;2023-04-27T05:16:45;94818.04;;;7.57;32.36
77366;BME280;66430;50.182;11.704;2023-04-27T05:19:10;94820.85;;;7.35;32.65
77366;BME280;66430;50.182;11.704;2023-04-27T05:21:35;94824.45;;;7.47;32.87
77366;BME280;66430;50.182;11.704;2023-04-27T05:24:01;94821.83;;;7.76;33.65
77366;BME280;66430;50.182;11.704;2023-04-27T05:26:27;94822.46;;;7.84;33.74
77366;BME280;66430;50.182;11.704;2023-04-27T05:28:53;94823.48;;;7.72;33.39
77366;BME280;66430;50.182;11.704;2023-04-27T05:31:18;94829.87;;;7.12;34.30
77366;BME280;66430;50.182;11.704;2023-04-27T05:33:43;94825.03;;;7.57;33.52
77366;BME280;66430;50.182;11.704;2023-04-27T05:36:08;94821.59;;;7.42;32.81
77366;BME280;66430;50.182;11.704;2023-04-27T05:38:34;94822.63;;;8.10;32.69
77366;BME280;66430;50.182;11.704;2023-04-27T05:40:59;94821.03;;;7.68;33.07
77366;BME280;66430;50.182;11.704;2023-04-27T05:43:24;94825.82;;;8.24;33.12
77366;BME280;66430;50.182;11.704;2023-04-27T05:45:49;94834.43;;;7.79;33.78
77366;BME280;66430;50.182;11.704;2023-04-27T05:48:15;94840.60;;;7.78;33.27
77366;BME280;66430;50.182;11.704;2023-04-27T05:50:40;94841.20;;;7.62;34.11
77366;BME280;66430;50.182;11.704;2023-04-27T05:53:06;94845.88;;;7.97;33.59
77366;BME280;66430;50.182;11.704;2023-04-27T05:55:31;94848.44;;;8.18;33.07
77366;BME280;66430;50.182;11.704;2023-04-27T05:57:57;94845.07;;;8.40;32.48
77366;BME280;66430;50.182;11.704;2023-04-27T06:00:23;94848.96;;;8.30;32.74
77366;BME280;66430;50.182;11.704;2023-04-27T06:02:49;94851.91;;;8.49;33.34
77366;BME280;66430;50.182;11.704;2023-04-27T06:05:14;94851.30;;;8.56;32.75
77366;BME280;66430;50.182;11.704;2023-04-27T06:07:40;94850.65;;;8.59;32.39
77366;BME280;66430;50.182;11.704;2023-04-27T06:10:07;94852.91;;;8.52;33.54
77366;BME280;66430;50.182;11.704;2023-04-27T06:12:31;94855.10;;;8.74;32.92
77366;BME280;66430;50.182;11.704;2023-04-27T06:14:57;94857.91;;;8.82;32.90
77366;BME280;66430;50.182;11.704;2023-04-27T06:17:22;94860.24;;;9.05;32.81
77366;BME280;66430;50.182;11.704;2023-04-27T06:19:48;94861.35;;;8.94;31.36
77366;BME280;66430;50.182;11.704;2023-04-27T06:22:13;94861.97;;;9.08;31.84
77366;BME280;66430;50.182;11.704;2023-04-27T06:24:39;94859.92;;;8.68;32.04
77366;BME280;66430;50.182;11.704;2023-04-27T06:27:05;94857.50;;;8.70;32.28
77366;BME280;66430;50.182;11.704;2023-04-27T06:29:30;94852.02;;;8.92;32.22
77366;BME280;66430;50.182;11.704;2023-04-27T06:31:55;94850.54;;;9.08;33.10
77366;BME280;66430;50.182;11.704;2023-04-27T06:34:20;94850.09;;;9.69;33.16
77366;BME280;66430;50.182;11.704;2023-04-27T06:36:46;94853.28;;;9.51;33.14
77366;BME280;66430;50.182;11.704;2023-04-27T06:39:12;94852.35;;;9.09;31.16
77366;BME280;66430;50.182;11.704;2023-04-27T06:41:37;94857.58;;;9.25;31.00
77366;BME280;66430;50.182;11.704;2023-04-27T06:44:03;94859.55;;;8.69;31.73
77366;BME280;66430;50.182;11.704;2023-04-27T06:46:28;94864.33;;;8.99;31.48
77366;BME280;66430;50.182;11.704;2023-04-27T06:48:53;94867.48;;;9.57;30.54
77366;BME280;66430;50.182;11.704;2023-04-27T06:51:19;94863.35;;;9.52;31.99
77366;BME280;66430;50.182;11.704;2023-04-27T06:53:45;94862.56;;;9.33;31.24
77366;BME280;66430;50.182;11.704;2023-04-27T06:56:11;94860.00;;;9.62;30.78
77366;BME280;66430;50.182;11.704;2023-04-27T06:58:35;94858.47;;;9.59;31.21
77366;BME280;66430;50.182;11.704;2023-04-27T07:01:01;94859.80;;;9.59;31.92
77366;BME280;66430;50.182;11.704;2023-04-27T07:03:26;94858.85;;;9.61;31.40
77366;BME280;66430;50.182;11.704;2023-04-27T07:05:53;94856.27;;;9.60;31.86
77366;BME280;66430;50.182;11.704;2023-04-27T07:08:17;94858.46;;;9.75;31.90
77366;BME280;66430;50.182;11.704;2023-04-27T07:10:43;94859.72;;;9.84;32.54
77366;BME280;66430;50.182;11.704;2023-04-27T07:13:08;94859.19;;;10.16;31.63
77366;BME280;66430;50.182;11.704;2023-04-27T07:15:34;94858.83;;;9.77;31.41
77366;BME280;66430;50.182;11.704;2023-04-27T07:17:59;94859.99;;;9.56;31.31
77366;BME280;66430;50.182;11.704;2023-04-27T07:20:24;94863.59;;;9.44;30.82
77366;BME280;66430;50.182;11.704;2023-04-27T07:22:49;94861.30;;;10.05;28.69
77366;BME280;66430;50.182;11.704;2023-04-27T07:25:15;94860.18;;;9.94;30.44
77366;BME280;66430;50.182;11.704;2023-04-27T07:27:40;94857.88;;;10.21;30.42
77366;BME280;66430;50.182;11.704;2023-04-27T07:30:07;94860.73;;;9.97;29.39
77366;BME280;66430;50.182;11.704;2023-04-27T07:32:31;94861.33;;;9.91;28.68
77366;BME280;66430;50.182;11.704;2023-04-27T07:34:57;94866.53;;;10.43;29.72
77366;BME280;66430;50.182;11.704;2023-04-27T07:37:22;94865.11;;;10.45;28.84
77366;BME280;66430;50.182;11.704;2023-04-27T07:39:48;94864.95;;;10.64;29.66
77366;BME280;66430;50.182;11.704;2023-04-27T07:42:13;94862.78;;;11.03;28.62
77366;BME280;66430;50.182;11.704;2023-04-27T07:44:38;94865.56;;;10.24;28.50
77366;BME280;66430;50.182;11.704;2023-04-27T07:47:04;94863.61;;;10.96;27.20
77366;BME280;66430;50.182;11.704;2023-04-27T07:49:29;94871.84;;;11.15;27.97
77366;BME280;66430;50.182;11.704;2023-04-27T07:51:55;94868.41;;;10.65;26.47
77366;BME280;66430;50.182;11.704;2023-04-27T07:54:20;94868.19;;;10.29;27.29
77366;BME280;66430;50.182;11.704;2023-04-27T07:56:46;94869.32;;;10.60;27.77
77366;BME280;66430;50.182;11.704;2023-04-27T07:59:11;94873.39;;;11.20;27.04
77366;BME280;66430;50.182;11.704;2023-04-27T08:01:37;94871.74;;;10.90;25.93
77366;BME280;66430;50.182;11.704;2023-04-27T08:04:02;94867.22;;;11.24;29.49
77366;BME280;66430;50.182;11.704;2023-04-27T08:06:27;94861.43;;;11.20;29.59
77366;BME280;66430;50.182;11.704;2023-04-27T08:08:53;94863.12;;;11.41;29.48
77366;BME280;66430;50.182;11.704;2023-04-27T08:11:18;94866.32;;;11.46;28.27
77366;BME280;66430;50.182;11.704;2023-04-27T08:13:43;94870.48;;;10.78;29.17
77366;BME280;66430;50.182;11.704;2023-04-27T08:16:09;94868.38;;;11.01;29.06
77366;BME280;66430;50.182;11.704;2023-04-27T08:18:35;94868.54;;;11.69;27.97
77366;BME280;66430;50.182;11.704;2023-04-27T08:21:00;94868.96;;;11.13;28.84
77366;BME280;66430;50.182;11.704;2023-04-27T08:23:26;94871.05;;;11.53;29.60
77366;BME280;66430;50.182;11.704;2023-04-27T08:25:51;94871.18;;;11.93;28.31
77366;BME280;66430;50.182;11.704;2023-04-27T08:28:16;94873.18;;;12.22;28.76
77366;BME280;66430;50.182;11.704;2023-04-27T08:30:42;94874.03;;;11.95;29.35
77366;BME280;66430;50.182;11.704;2023-04-27T08:33:08;94870.73;;;12.39;28.19
77366;BME280;66430;50.182;11.704;2023-04-27T08:35:33;94871.16;;;12.44;27.07
77366;BME280;66430;50.182;11.704;2023-04-27T08:37:59;94869.87;;;12.82;27.68
77366;BME280;66430;50.182;11.704;2023-04-27T08:40:24;94869.55;;;12.71;28.59
77366;BME280;66430;50.182;11.704;2023-04-27T08:42:56;94869.24;;;12.77;26.32
77366;BME280;66430;50.182;11.704;2023-04-27T08:45:15;94869.18;;;12.64;26.08
77366;BME280;66430;50.182;11.704;2023-04-27T08:47:40;94872.59;;;12.79;26.83
77366;BME280;66430;50.182;11.704;2023-04-27T08:50:06;94878.55;;;13.19;25.79
77366;BME280;66430;50.182;11.704;2023-04-27T08:52:31;94881.23;;;13.44;23.53
77366;BME280;66430;50.182;11.704;2023-04-27T08:54:58;94879.96;;;13.29;23.88
77366;BME280;66430;50.182;11.704;2023-04-27T08:57:21;94882.05;;;12.93;23.55
77366;BME280;66430;50.182;11.704;2023-04-27T08:59:56;94879.80;;;13.18;27.07
77366;BME280;66430;50.182;11.704;2023-04-27T09:02:18;94874.20;;;12.61;26.51
77366;BME280;66430;50.182;11.704;2023-04-27T09:04:38;94874.86;;;13.30;24.83
77366;BME280;66430;50.182;11.704;2023-04-27T09:07:11;94877.89;;;13.81;25.97
77366;BME280;66430;50.182;11.704;2023-04-27T09:09:28;94876.79;;;13.53;26.42
77366;BME280;66430;50.182;11.704;2023-04-27T09:11:53;94877.59;;;14.20;25.73
77366;BME280;66430;50.182;11.704;2023-04-27T09:14:20;94872.93;;;14.27;25.57
77366;BME280;66430;50.182;11.704;2023-04-27T09:16:44;94865.24;;;14.07;24.28
77366;BME280;66430;50.182;11.704;2023-04-27T09:19:09;94858.29;;;14.16;22.72
77366;BME280;66430;50.182;11.704;2023-04-27T09:21:35;94862.46;;;14.04;25.53
77366;BME280;66430;50.182;11.704;2023-04-27T09:24:10;94860.82;;;14.12;26.88
77366;BME280;66430;50.182;11.704;2023-04-27T09:26:26;94854.55;;;14.11;26.99
77366;BME280;66430;50.182;11.704;2023-04-27T09:28:52;94857.26;;;14.22;25.58
77366;BME280;66430;50.182;11.704;2023-04-27T09:31:16;94853.25;;;14.31;25.74
77366;BME280;66430;50.182;11.704;2023-04-27T09:33:43;94855.99;;;13.85;25.41
77366;BME280;66430;50.182;11.704;2023-04-27T09:36:07;94858.44;;;14.29;24.96
77366;BME280;66430;50.182;11.704;2023-04-27T09:38:32;94853.93;;;14.50;25.70
77366;BME280;66430;50.182;11.704;2023-04-27T09:40:58;94850.83;;;14.63;27.08
77366;BME280;66430;50.182;11.704;2023-04-27T09:43:23;94850.46;;;14.48;24.56
77366;BME280;66430;50.182;11.704;2023-04-27T09:45:49;94842.27;;;14.91;22.66
77366;BME280;66430;50.182;11.704;2023-04-27T09:48:14;94844.86;;;14.87;25.13
77366;BME280;66430;50.182;11.704;2023-04-27T09:50:42;94846.39;;;15.06;24.31
77366;BME280;66430;50.182;11.704;2023-04-27T09:53:06;94846.23;;;15.00;23.94
77366;BME280;66430;50.182;11.704;2023-04-27T09:55:33;94849.40;;;15.22;22.14
77366;BME280;66430;50.182;11.704;2023-04-27T09:58:05;94847.39;;;15.27;21.22
77366;BME280;66430;50.182;11.704;2023-04-27T10:00:31;94849.89;;;14.95;25.21
77366;BME280;66430;50.182;11.704;2023-04-27T10:02:54;94849.44;;;15.24;22.29
77366;BME280;66430;50.182;11.704;2023-04-27T10:05:23;94845.63;;;15.05;22.48
77366;BME280;66430;50.182;11.704;2023-04-27T10:07:38;94843.92;;;14.74;22.73
77366;BME280;66430;50.182;11.704;2023-04-27T10:10:02;94838.97;;;15.21;21.58
77366;BME280;66430;50.182;11.704;2023-04-27T10:12:32;94837.89;;;14.91;22.05
77366;BME280;66430;50.182;11.704;2023-04-27T10:14:54;94835.00;;;14.89;22.58
77366;BME280;66430;50.182;11.704;2023-04-27T10:17:23;94833.48;;;14.76;23.46
77366;BME280;66430;50.182;11.704;2023-04-27T10:19:52;94832.16;;;14.53;23.92
77366;BME280;66430;50.182;11.704;2023-04-27T10:22:10;94830.43;;;14.64;23.33
77366;BME280;66430;50.182;11.704;2023-04-27T10:24:35;94830.12;;;15.04;23.07
77366;BME280;66430;50.182;11.704;2023-04-27T10:27:02;94827.63;;;14.52;24.22
77366;BME280;66430;50.182;11.704;2023-04-27T10:29:34;94828.64;;;14.88;23.98
77366;BME280;66430;50.182;11.704;2023-04-27T10:31:51;94829.80;;;14.74;24.42
77366;BME280;66430;50.182;11.704;2023-04-27T10:34:17;94833.89;;;14.50;24.54
77366;BME280;66430;50.182;11.704;2023-04-27T10:36:42;94834.16;;;14.86;23.30
77366;BME280;66430;50.182;11.704;2023-04-27T10:39:15;94833.68;;;14.94;22.43
77366;BME280;66430;50.182;11.704;2023-04-27T10:41:33;94836.52;;;15.05;23.43
77366;BME280;66430;50.182;11.704;2023-04-27T10:46:23;94837.35;;;15.08;22.99
77366;BME280;66430;50.182;11.704;2023-04-27T10:48:49;94836.37;;;14.69;23.09
77366;BME280;66430;50.182;11.704;2023-04-27T10:51:15;94837.11;;;14.71;23.71
77366;BME280;66430;50.182;11.704;2023-04-27T10:53:40;94836.18;;;15.09;24.62
77366;BME280;66430;50.182;11.704;2023-04-27T10:56:05;94835.05;;;15.62;23.71
77366;BME280;66430;50.182;11.704;2023-04-27T10:58:30;94834.17;;;15.31;23.48
77366;BME280;66430;50.182;11.704;2023-04-27T11:00:56;94829.99;;;15.24;24.71
77366;BME280;66430;50.182;11.704;2023-04-27T11:03:22;94830.33;;;15.53;21.39
77366;BME280;66430;50.182;11.704;2023-04-27T11:05:48;94833.21;;;15.12;21.98
77366;BME280;66430;50.182;11.704;2023-04-27T11:08:13;94834.61;;;14.99;22.69
77366;BME280;66430;50.182;11.704;2023-04-27T11:10:39;94830.19;;;15.07;22.32
77366;BME280;66430;50.182;11.704;2023-04-27T11:13:08;94831.79;;;15.24;21.98
77366;BME280;66430;50.182;11.704;2023-04-27T11:15:28;94829.76;;;15.35;21.20
77366;BME280;66430;50.182;11.704;2023-04-27T11:18:03;94829.93;;;14.84;23.86
77366;BME280;66430;50.182;11.704;2023-04-27T11:20:23;94830.52;;;15.05;22.56
77366;BME280;66430;50.182;11.704;2023-04-27T11:22:44;94833.02;;;14.94;22.87
77366;BME280;66430;50.182;11.704;2023-04-27T11:25:10;94833.71;;;15.08;21.76
77366;BME280;66430;50.182;11.704;2023-04-27T11:27:37;94828.10;;;15.20;22.72
77366;BME280;66430;50.182;11.704;2023-04-27T11:30:00;94826.68;;;15.31;21.01
77366;BME280;66430;50.182;11.704;2023-04-27T11:32:26;94827.99;;;15.37;24.70
77366;BME280;66430;50.182;11.704;2023-04-27T11:34:52;94826.97;;;15.45;23.67
77366;BME280;66430;50.182;11.704;2023-04-27T11:37:20;94834.65;;;15.50;22.41
77366;BME280;66430;50.182;11.704;2023-04-27T11:39:44;94836.80;;;15.44;21.17
77366;BME280;66430;50.182;11.704;2023-04-27T11:42:17;94835.36;;;15.18;22.72
77366;BME280;66430;50.182;11.704;2023-04-27T11:44:32;94832.86;;;15.10;20.66
77366;BME280;66430;50.182;11.704;2023-04-27T11:46:58;94830.92;;;14.70;22.79
77366;BME280;66430;50.182;11.704;2023-04-27T11:49:25;94831.85;;;15.20;21.41
77366;BME280;66430;50.182;11.704;2023-04-27T11:51:48;94832.07;;;15.07;22.01
77366;BME280;66430;50.182;11.704;2023-04-27T11:54:13;94832.00;;;15.10;20.16
77366;BME280;66430;50.182;11.704;2023-04-27T11:56:39;94830.69;;;14.68;24.95
77366;BME280;66430;50.182;11.704;2023-04-27T11:59:05;94836.86;;;14.94;23.62
77366;BME280;66430;50.182;11.704;2023-04-27T12:01:30;94840.72;;;14.84;23.49
77366;BME280;66430;50.182;11.704;2023-04-27T12:03:55;94834.31;;;15.38;23.37
77366;BME280;66430;50.182;11.704;2023-04-27T12:06:23;94831.75;;;15.65;21.71
77366;BME280;66430;50.182;11.704;2023-04-27T12:08:45;94833.95;;;16.01;23.53
77366;BME280;66430;50.182;11.704;2023-04-27T12:11:10;94828.88;;;16.19;21.41
77366;BME280;66430;50.182;11.704;2023-04-27T12:13:36;94820.03;;;16.01;23.36
77366;BME280;66430;50.182;11.704;2023-04-27T12:16:01;94823.03;;;15.97;22.96
77366;BME280;66430;50.182;11.704;2023-04-27T12:18:26;94819.80;;;15.84;22.42
77366;BME280;66430;50.182;11.704;2023-04-27T12:20:57;94822.98;;;16.54;22.08
77366;BME280;66430;50.182;11.704;2023-04-27T12:23:17;94822.50;;;16.20;21.09
77366;BME280;66430;50.182;11.704;2023-04-27T12:25:42;94823.35;;;16.06;21.23
77366;BME280;66430;50.182;11.704;2023-04-27T12:28:08;94825.02;;;15.60;21.26
77366;BME280;66430;50.182;11.704;2023-04-27T12:30:34;94820.95;;;15.62;20.97
77366;BME280;66430;50.182;11.704;2023-04-27T12:32:59;94822.37;;;15.80;20.98
77366;BME280;66430;50.182;11.704;2023-04-27T12:35:24;94823.42;;;15.85;21.08
77366;BME280;66430;50.182;11.704;2023-04-27T12:37:50;94822.28;;;16.04;20.95
77366;BME280;66430;50.182;11.704;2023-04-27T12:40:15;94823.63;;;15.49;19.70
77366;BME280;66430;50.182;11.704;2023-04-27T12:42:40;94824.38;;;15.76;21.57
77366;BME280;66430;50.182;11.704;2023-04-27T12:45:07;94825.01;;;15.73;22.65
77366;BME280;66430;50.182;11.704;2023-04-27T12:47:31;94816.98;;;16.01;23.71